Sirios Cement IV — 9HQE8 — position and weather

sailwx.info

Track history (hours):
 
Tides and Currents Weather Stations Pressure Air Temp Water Temp Dewpoint Dewpoint Depression Visibility Wind Speed Wind Dir Waves Ship Positions

Sirios Cement IV

Last reported at 2014-Sep-01 16:13 UTC. Time now 2014-Sep-03 07:12 UTC.
Position N 37°43' E 023°40'.

Length 134 m; draft 6 m.

Type: Cargo ship. MMSI: 256278000.

Date/timePositionNaut miles runAvg speedWind from/ knotsBaromVisibWave heightAir tempDewpointWater temp
2014-Sep-01 16:13N 37°43' E 023°40'6 9.3
2014-Sep-01 15:34N 37°48' E 023°37'6 2.7
2014-Sep-01 13:16N 37°53' E 023°33'0 0.0
2014-Sep-01 12:31N 37°53' E 023°33'0 0.0
2014-Sep-01 11:31N 37°53' E 023°33'0 0.0
2014-Sep-01 10:31N 37°53' E 023°33'0 0.0
2014-Sep-01 09:31N 37°53' E 023°33'0 0.0
2014-Sep-01 08:31N 37°53' E 023°33'1 1.2
2014-Sep-01 07:33N 37°54' E 023°34'7 6.5
2014-Sep-01 06:31N 38°01' E 023°33'  
2014-Aug-30 02:18N 38°03' E 023°32'0 0.0
2014-Aug-29 23:33N 38°03' E 023°32'0 0.0
2014-Aug-29 20:06N 38°03' E 023°32'0 0.0
2014-Aug-29 19:21N 38°03' E 023°32'0 0.0
2014-Aug-29 17:09N 38°03' E 023°32'1 0.1
2014-Aug-29 06:13N 38°02' E 023°32'5 8.3
2014-Aug-29 05:33N 37°57' E 023°35'3 2.5
2014-Aug-29 04:33N 37°55' E 023°36'4 4.5
2014-Aug-29 03:33N 37°51' E 023°39'  
Track history (hours):
 
Tides and Currents Weather Stations Pressure Air Temp Water Temp Dewpoint Dewpoint Depression Visibility Wind Speed Wind Dir Waves Ship Positions

Sirios Cement IV

Last reported at 2014-Sep-01 16:13 UTC. Time now 2014-Sep-03 07:12 UTC.
Position N 37°43' E 023°40'.

Length 134 m; draft 6 m.

Type: Cargo ship. MMSI: 256278000.

Date/timePositionNaut miles runAvg speedWind from/ knotsBaromVisibWave heightAir tempDewpointWater temp
2014-Sep-01 16:13N 37°43' E 023°40'6 9.3
2014-Sep-01 15:34N 37°48' E 023°37'6 2.7
2014-Sep-01 13:16N 37°53' E 023°33'0 0.0
2014-Sep-01 12:31N 37°53' E 023°33'0 0.0
2014-Sep-01 11:31N 37°53' E 023°33'0 0.0
2014-Sep-01 10:31N 37°53' E 023°33'0 0.0
2014-Sep-01 09:31N 37°53' E 023°33'0 0.0
2014-Sep-01 08:31N 37°53' E 023°33'1 1.2
2014-Sep-01 07:33N 37°54' E 023°34'7 6.5
2014-Sep-01 06:31N 38°01' E 023°33'  
2014-Aug-30 02:18N 38°03' E 023°32'0 0.0
2014-Aug-29 23:33N 38°03' E 023°32'0 0.0
2014-Aug-29 20:06N 38°03' E 023°32'0 0.0
2014-Aug-29 19:21N 38°03' E 023°32'0 0.0
2014-Aug-29 17:09N 38°03' E 023°32'1 0.1
2014-Aug-29 06:13N 38°02' E 023°32'5 8.3
2014-Aug-29 05:33N 37°57' E 023°35'3 2.5
2014-Aug-29 04:33N 37°55' E 023°36'4 4.5
2014-Aug-29 03:33N 37°51' E 023°39'  

Dump ship's entire track history